Time;durP1;ratioP1;P1;durP2;ratioP2;P2;SDS_P1;SDS_P2;PMS_P1;PMS_P2;Temp;Humidity;BMP_temperature;BMP_pressure;BME280_temperature;BME280_humidity;BME280_pressure;Samples;Min_cycle;Max_cycle;Signal;HPM_P1;HPM_P2
2024/02/04 00:01:21;;;;;;;0.63;0.30;;;8.40;1.00;;;;;;7367290;19;20053;-70
2024/02/04 00:03:51;;;;;;;0.75;0.40;;;8.40;1.00;;;;;;7366321;19;20010;-71
2024/02/04 00:06:21;;;;;;;0.50;0.30;;;8.40;1.00;;;;;;7365796;19;21510;-70
2024/02/04 00:08:52;;;;;;;0.30;0.25;;;8.40;1.00;;;;;;7364786;19;20047;-70
2024/02/04 00:11:22;;;;;;;0.38;0.20;;;8.30;1.00;;;;;;7365399;19;20487;-71
2024/02/04 00:13:52;;;;;;;0.20;0.20;;;8.30;1.00;;;;;;7367239;19;20033;-70
2024/02/04 00:16:24;;;;;;;0.60;0.30;;;8.40;1.00;;;;;;7366270;19;20018;-70
2024/02/04 00:18:54;;;;;;;0.20;0.20;;;8.30;1.00;;;;;;7365359;19;20792;-71
2024/02/04 00:21:24;;;;;;;0.20;0.15;;;8.30;1.00;;;;;;7365689;19;20121;-71
2024/02/04 00:23:54;;;;;;;0.50;0.40;;;8.30;1.00;;;;;;7365960;19;20036;-71
2024/02/04 00:26:24;;;;;;;0.20;0.20;;;8.20;1.00;;;;;;7366453;19;20037;-70
2024/02/04 00:28:54;;;;;;;1.20;0.40;;;8.30;1.00;;;;;;7364480;19;20021;-70
2024/02/04 00:31:27;;;;;;;0.55;0.40;;;8.30;1.00;;;;;;7366411;19;20015;-70
2024/02/04 00:33:57;;;;;;;0.40;0.30;;;8.30;1.00;;;;;;7366263;19;20029;-70
2024/02/04 00:36:27;;;;;;;0.20;0.20;;;8.20;1.00;;;;;;7366136;19;20054;-70
2024/02/04 00:38:57;;;;;;;0.20;0.20;;;8.30;1.00;;;;;;7363876;19;20011;-71
2024/02/04 00:41:27;;;;;;;0.30;0.20;;;8.30;1.00;;;;;;7364264;19;20567;-71
2024/02/04 00:43:57;;;;;;;0.32;0.20;;;8.30;1.00;;;;;;7365878;19;20251;-70
2024/02/04 00:46:30;;;;;;;1.38;0.80;;;8.20;1.00;;;;;;7365087;19;20035;-69
2024/02/04 00:49:00;;;;;;;0.32;0.20;;;8.20;1.00;;;;;;7365894;19;20510;-70
2024/02/04 00:51:30;;;;;;;0.40;0.20;;;8.20;1.00;;;;;;7363669;19;20045;-70
2024/02/04 00:54:00;;;;;;;0.68;0.20;;;8.20;1.00;;;;;;7366217;19;20027;-70
2024/02/04 00:56:30;;;;;;;0.50;0.30;;;8.20;1.00;;;;;;7362744;19;20022;-70
2024/02/04 00:59:00;;;;;;;1.00;0.25;;;8.10;1.00;;;;;;7366074;19;20390;-71
2024/02/04 01:01:33;;;;;;;0.30;0.20;;;8.10;1.00;;;;;;7365647;19;20010;-71
2024/02/04 01:04:05;;;;;;;0.77;0.20;;;8.10;1.00;;;;;;7368048;19;20011;-70
2024/02/04 01:06:35;;;;;;;0.45;0.30;;;8.10;1.00;;;;;;7372562;19;20002;-71
2024/02/04 01:09:25;;;;;;;0.82;0.40;;;8.10;1.00;;;;;;7372075;19;20030;-71
2024/02/04 01:11:55;;;;;;;0.68;0.20;;;8.10;1.00;;;;;;7370904;19;20410;-71
2024/02/04 01:14:25;;;;;;;0.20;0.10;;;8.00;1.00;;;;;;7370814;19;20030;-71
2024/02/04 01:16:57;;;;;;;0.40;0.30;;;7.90;1.00;;;;;;7370760;19;20027;-70
2024/02/04 01:19:27;;;;;;;0.50;0.30;;;7.90;1.00;;;;;;7371503;19;20739;-71
2024/02/04 01:21:58;;;;;;;0.45;0.20;;;7.90;1.00;;;;;;7369879;19;20241;-72
2024/02/04 01:24:28;;;;;;;0.20;0.20;;;7.80;1.00;;;;;;7371144;19;20392;-70
2024/02/04 01:26:58;;;;;;;0.30;0.20;;;7.80;1.00;;;;;;7371096;19;20021;-70
2024/02/04 01:29:28;;;;;;;0.60;0.30;;;7.80;1.00;;;;;;7370900;19;20039;-71
2024/02/04 01:32:01;;;;;;;0.50;0.20;;;7.90;1.00;;;;;;7369272;19;20014;-71
2024/02/04 01:34:31;;;;;;;0.13;0.08;;;7.90;1.00;;;;;;7368092;19;20011;-71
2024/02/04 01:37:01;;;;;;;1.38;0.25;;;7.90;1.00;;;;;;7369910;19;20014;-71
2024/02/04 01:39:32;;;;;;;0.38;0.20;;;8.00;1.00;;;;;;7370818;19;20045;-72
2024/02/04 01:42:02;;;;;;;0.40;0.28;;;7.90;1.00;;;;;;7370550;19;20121;-71
2024/02/04 01:44:32;;;;;;;0.30;0.20;;;7.90;1.00;;;;;;7372003;19;20014;-71
2024/02/04 01:47:05;;;;;;;0.50;0.22;;;8.00;1.00;;;;;;7371124;19;20082;-72
2024/02/04 01:49:36;;;;;;;0.20;0.20;;;7.90;1.00;;;;;;7372167;19;20021;-71
2024/02/04 01:52:08;;;;;;;0.20;0.10;;;8.00;1.00;;;;;;7370563;19;20019;-70
2024/02/04 01:54:41;;;;;;;0.40;0.20;;;8.00;1.00;;;;;;7368125;19;20422;-74
2024/02/04 01:57:13;;;;;;;0.98;0.15;;;8.00;1.00;;;;;;7369379;19;20019;-71
2024/02/04 01:59:43;;;;;;;0.40;0.30;;;8.00;1.00;;;;;;7369217;19;20014;-71
2024/02/04 02:02:16;;;;;;;0.10;0.10;;;8.00;1.00;;;;;;7366919;19;20014;-71
2024/02/04 02:04:46;;;;;;;0.10;0.10;;;8.00;1.00;;;;;;7367931;19;20014;-71
2024/02/04 02:07:19;;;;;;;0.10;0.10;;;8.00;1.00;;;;;;7368371;19;20018;-72
2024/02/04 02:09:50;;;;;;;1.15;0.10;;;8.10;1.00;;;;;;7370132;19;20014;-72
2024/02/04 02:12:25;;;;;;;0.20;0.10;;;8.10;1.00;;;;;;7370396;19;20082;-71
2024/02/04 02:15:03;;;;;;;0.10;0.10;;;8.10;1.00;;;;;;7368725;19;20598;-71
2024/02/04 02:17:48;;;;;;;0.10;0.05;;;8.10;1.00;;;;;;7371126;19;20433;-71
2024/02/04 02:20:25;;;;;;;0.10;0.10;;;8.20;1.00;;;;;;6858775;19;2004736;-70
2024/02/04 02:23:06;;;;;;;0.45;0.10;;;8.20;1.00;;;;;;7368078;19;20006;-71
2024/02/04 02:25:40;;;;;;;0.10;0.10;;;8.20;1.00;;;;;;7370670;19;20017;-71
2024/02/04 02:28:11;;;;;;;0.20;0.10;;;8.20;1.00;;;;;;7369146;19;20539;-71
2024/02/04 02:30:41;;;;;;;0.38;0.10;;;8.20;1.00;;;;;;7370495;19;20018;-71
2024/02/04 02:33:11;;;;;;;2.53;0.10;;;8.20;1.00;;;;;;7369673;19;20037;-71
2024/02/04 02:35:42;;;;;;;0.15;0.10;;;8.20;1.00;;;;;;7369663;19;20014;-71
2024/02/04 02:38:22;;;;;;;0.20;0.10;;;8.30;1.00;;;;;;7367781;19;20014;-71
2024/02/04 02:41:00;;;;;;;0.10;0.10;;;8.30;1.00;;;;;;7369234;19;20491;-71
2024/02/04 02:43:32;;;;;;;1.25;0.20;;;8.30;1.00;;;;;;7368987;19;20010;-71
2024/02/04 02:46:02;;;;;;;0.50;0.20;;;8.30;1.00;;;;;;7369511;19;20010;-71
2024/02/04 02:48:33;;;;;;;0.22;0.17;;;8.30;1.00;;;;;;7368566;19;20089;-70
2024/02/04 02:51:03;;;;;;;0.20;0.10;;;8.30;1.00;;;;;;7369067;19;20011;-71
2024/02/04 02:53:33;;;;;;;0.00;0.00;;;8.30;1.00;;;;;;7369500;19;20758;-71
2024/02/04 02:56:07;;;;;;;0.28;0.10;;;8.30;1.00;;;;;;7368065;19;20018;-72
2024/02/04 02:58:37;;;;;;;0.20;0.20;;;8.30;1.00;;;;;;7367657;19;20455;-71
2024/02/04 03:01:07;;;;;;;0.17;0.10;;;8.30;1.00;;;;;;7370338;19;20960;-70
2024/02/04 03:03:37;;;;;;;1.08;0.10;;;8.30;1.00;;;;;;7366174;19;20015;-71
2024/02/04 03:06:08;;;;;;;0.10;0.10;;;8.30;1.00;;;;;;7369769;19;20864;-71
2024/02/04 03:08:38;;;;;;;0.10;0.10;;;8.30;1.00;;;;;;7364805;19;20125;-70
2024/02/04 03:11:11;;;;;;;0.22;0.10;;;8.30;1.00;;;;;;7364004;19;20014;-70
2024/02/04 03:13:41;;;;;;;0.13;0.10;;;8.30;1.00;;;;;;7368287;19;20082;-71
2024/02/04 03:16:13;;;;;;;0.17;0.10;;;8.40;1.00;;;;;;7367208;19;20094;-71
2024/02/04 03:18:44;;;;;;;0.10;0.10;;;8.40;1.00;;;;;;7366132;19;20018;-70
2024/02/04 03:21:17;;;;;;;0.15;0.10;;;8.40;1.00;;;;;;7366396;19;20015;-70
2024/02/04 03:23:47;;;;;;;0.28;0.10;;;8.40;1.00;;;;;;7368131;19;20018;-71
2024/02/04 03:26:22;;;;;;;0.90;0.15;;;8.40;1.00;;;;;;7362302;19;20463;-71
2024/02/04 03:28:52;;;;;;;0.20;0.20;;;8.40;1.00;;;;;;7365186;19;20324;-70
2024/02/04 03:31:23;;;;;;;0.77;0.10;;;8.50;1.00;;;;;;7366743;19;20050;-71
2024/02/04 03:33:53;;;;;;;0.30;0.20;;;8.50;1.00;;;;;;7367348;19;20011;-70
2024/02/04 03:36:25;;;;;;;0.13;0.00;;;8.40;1.00;;;;;;7369163;19;20036;-71
2024/02/04 03:38:56;;;;;;;0.30;0.10;;;8.50;1.00;;;;;;7366948;19;20007;-70
2024/02/04 03:41:28;;;;;;;0.00;0.00;;;8.50;1.00;;;;;;7366224;19;20871;-70
2024/02/04 03:43:59;;;;;;;0.10;0.00;;;8.50;1.00;;;;;;7366249;19;20070;-70
2024/02/04 03:46:29;;;;;;;0.30;0.20;;;8.50;1.00;;;;;;7363876;19;20014;-71
2024/02/04 03:48:59;;;;;;;0.10;0.08;;;8.40;1.00;;;;;;7366448;19;20014;-70
2024/02/04 03:51:29;;;;;;;0.10;0.10;;;8.40;1.00;;;;;;7365395;19;20340;-71
2024/02/04 03:53:59;;;;;;;0.28;0.10;;;8.40;1.00;;;;;;7366912;19;20024;-71
2024/02/04 03:56:32;;;;;;;0.00;0.00;;;8.40;1.00;;;;;;7364974;19;20101;-70
2024/02/04 03:59:02;;;;;;;0.10;0.10;;;8.40;1.00;;;;;;7365499;19;20017;-71
2024/02/04 04:01:32;;;;;;;0.10;0.10;;;8.40;1.00;;;;;;7364970;19;20010;-70
2024/02/04 04:04:02;;;;;;;0.40;0.10;;;8.40;1.00;;;;;;7365681;19;20018;-70
2024/02/04 04:06:32;;;;;;;0.68;0.10;;;8.40;1.00;;;;;;7365352;19;20506;-70
2024/02/04 04:09:02;;;;;;;0.10;0.10;;;8.40;1.00;;;;;;7366471;19;20085;-70
2024/02/04 04:11:35;;;;;;;0.10;0.10;;;8.40;1.00;;;;;;7365817;19;20014;-72
2024/02/04 04:14:05;;;;;;;1.33;0.20;;;8.50;1.00;;;;;;7367294;19;20031;-71
2024/02/04 04:16:35;;;;;;;0.10;0.10;;;8.50;1.00;;;;;;7364801;19;20039;-71
2024/02/04 04:19:05;;;;;;;0.10;0.10;;;8.50;1.00;;;;;;7366906;19;20757;-71
2024/02/04 04:21:35;;;;;;;0.20;0.13;;;8.40;1.00;;;;;;7365218;19;20006;-71
2024/02/04 04:24:06;;;;;;;0.05;0.00;;;8.50;1.00;;;;;;7366024;19;20492;-71
2024/02/04 04:26:39;;;;;;;0.00;0.00;;;8.50;1.00;;;;;;7365624;19;20414;-71
2024/02/04 04:29:09;;;;;;;0.52;0.03;;;8.50;1.00;;;;;;7367501;19;20054;-72
2024/02/04 04:31:39;;;;;;;0.10;0.10;;;8.50;1.00;;;;;;7366871;19;20026;-70
2024/02/04 04:34:09;;;;;;;0.30;0.10;;;8.50;1.00;;;;;;7366134;19;20007;-71
2024/02/04 04:36:39;;;;;;;0.10;0.10;;;8.50;1.00;;;;;;7364017;19;20434;-70
2024/02/04 04:39:09;;;;;;;0.10;0.10;;;8.50;1.00;;;;;;7367937;19;20007;-71
2024/02/04 04:41:43;;;;;;;0.10;0.08;;;8.50;1.00;;;;;;7371965;19;20068;-71
2024/02/04 04:44:13;;;;;;;0.22;0.20;;;8.50;1.00;;;;;;7373306;19;20809;-71
2024/02/04 04:46:43;;;;;;;0.73;0.30;;;8.50;1.00;;;;;;7368574;19;20083;-71
2024/02/04 04:49:13;;;;;;;0.00;0.00;;;8.50;1.00;;;;;;7372529;19;20006;-69
2024/02/04 04:51:47;;;;;;;0.52;0.10;;;8.50;1.00;;;;;;7372359;19;20017;-71
2024/02/04 04:54:17;;;;;;;0.38;0.20;;;8.50;1.00;;;;;;7371146;19;20036;-70
2024/02/04 04:56:50;;;;;;;0.10;0.10;;;8.50;1.00;;;;;;7370508;19;20490;-70
2024/02/04 04:59:20;;;;;;;0.20;0.10;;;8.50;1.00;;;;;;7372082;19;20014;-71
2024/02/04 05:01:51;;;;;;;2.20;0.20;;;8.50;1.00;;;;;;7370953;19;20014;-70
2024/02/04 05:04:24;;;;;;;0.10;0.10;;;8.50;1.00;;;;;;7371589;19;20721;-70
2024/02/04 05:06:55;;;;;;;0.25;0.10;;;8.50;1.00;;;;;;7370361;19;20377;-71
2024/02/04 05:09:25;;;;;;;0.68;0.30;;;8.60;1.00;;;;;;7371210;19;20006;-71
2024/02/04 05:11:58;;;;;;;0.10;0.10;;;8.50;1.00;;;;;;7371983;19;20010;-70
2024/02/04 05:14:28;;;;;;;0.17;0.05;;;8.60;1.00;;;;;;7371697;19;20378;-70
2024/02/04 05:16:58;;;;;;;0.90;0.20;;;8.50;1.00;;;;;;7370446;19;20044;-70
2024/02/04 05:19:28;;;;;;;0.13;0.10;;;8.50;1.00;;;;;;7372187;19;20011;-70
2024/02/04 05:21:58;;;;;;;0.00;0.00;;;8.50;1.00;;;;;;7370809;19;20090;-70
2024/02/04 05:24:28;;;;;;;0.05;0.00;;;8.50;1.00;;;;;;7371916;19;20006;-70
2024/02/04 05:27:00;;;;;;;0.57;0.20;;;8.60;1.00;;;;;;7370692;19;20069;-71
2024/02/04 05:29:30;;;;;;;0.43;0.10;;;8.50;1.00;;;;;;7372264;19;20036;-70
2024/02/04 05:32:00;;;;;;;0.50;0.10;;;8.60;1.00;;;;;;7370710;19;20017;-70
2024/02/04 05:34:34;;;;;;;0.10;0.10;;;8.60;1.00;;;;;;7370955;19;20011;-70
2024/02/04 05:37:04;;;;;;;0.20;0.20;;;8.60;1.00;;;;;;7369992;19;20015;-70
2024/02/04 05:39:34;;;;;;;0.30;0.10;;;8.70;1.00;;;;;;7371479;19;20018;-71
2024/02/04 05:42:07;;;;;;;0.20;0.20;;;8.60;1.00;;;;;;7370895;19;20403;-70
2024/02/04 05:44:37;;;;;;;1.20;0.10;;;8.60;1.00;;;;;;7370243;19;20042;-70
2024/02/04 05:47:07;;;;;;;0.00;0.00;;;8.70;1.00;;;;;;7368281;19;20026;-71
2024/02/04 05:49:37;;;;;;;0.10;0.08;;;8.70;1.00;;;;;;7366881;19;20039;-72
2024/02/04 05:52:08;;;;;;;0.10;0.00;;;8.70;1.00;;;;;;7368759;19;20022;-72
2024/02/04 05:54:41;;;;;;;0.00;0.00;;;8.70;1.00;;;;;;7369636;19;20030;-71
2024/02/04 05:57:14;;;;;;;0.08;0.00;;;8.60;1.00;;;;;;7370111;19;20382;-71
2024/02/04 05:59:44;;;;;;;0.10;0.00;;;8.70;1.00;;;;;;7370574;19;20073;-71
2024/02/04 06:02:14;;;;;;;0.28;0.20;;;8.60;1.00;;;;;;7369282;19;20011;-72
2024/02/04 06:04:44;;;;;;;0.00;0.00;;;8.70;1.00;;;;;;7368770;19;20070;-71
2024/02/04 06:07:14;;;;;;;0.00;0.00;;;8.70;1.00;;;;;;7371700;19;20015;-71
2024/02/04 06:09:44;;;;;;;0.03;0.00;;;8.70;1.00;;;;;;7369966;19;20007;-71
2024/02/04 06:12:16;;;;;;;0.00;0.00;;;8.70;1.00;;;;;;7370590;19;20010;-72
2024/02/04 06:14:46;;;;;;;0.20;0.10;;;8.70;1.00;;;;;;7371035;19;20081;-71
2024/02/04 06:17:16;;;;;;;0.15;0.10;;;8.80;1.00;;;;;;7368040;19;20014;-71
2024/02/04 06:19:46;;;;;;;0.03;0.03;;;8.80;1.00;;;;;;7372150;19;21019;-70
2024/02/04 06:22:17;;;;;;;0.10;0.10;;;8.80;1.00;;;;;;7370589;19;20032;-71
2024/02/04 06:24:48;;;;;;;0.00;0.00;;;8.70;1.00;;;;;;7369718;19;20006;-71
2024/02/04 06:27:21;;;;;;;0.10;0.10;;;8.80;1.00;;;;;;7369586;19;20029;-70
2024/02/04 06:29:51;;;;;;;0.20;0.20;;;8.70;1.00;;;;;;7368720;19;20040;-70
2024/02/04 06:32:22;;;;;;;0.50;0.20;;;8.80;1.00;;;;;;7369414;19;20006;-71
2024/02/04 06:34:54;;;;;;;0.43;0.30;;;8.80;1.00;;;;;;7366421;19;20015;-70
2024/02/04 06:37:25;;;;;;;0.22;0.20;;;8.80;1.00;;;;;;7368627;19;20450;-70
2024/02/04 06:39:55;;;;;;;0.20;0.20;;;8.80;1.00;;;;;;7369172;19;20767;-70
2024/02/04 06:42:28;;;;;;;0.22;0.10;;;8.80;1.00;;;;;;7369447;19;20018;-71
2024/02/04 06:44:58;;;;;;;0.20;0.20;;;8.90;1.00;;;;;;7368497;19;20411;-71
2024/02/04 06:47:28;;;;;;;0.17;0.17;;;8.90;1.00;;;;;;7367262;19;20078;-70
2024/02/04 06:49:58;;;;;;;0.50;0.25;;;8.80;1.00;;;;;;7367431;19;20423;-71
2024/02/04 06:52:28;;;;;;;0.52;0.30;;;8.80;1.00;;;;;;7368174;19;20018;-69
2024/02/04 06:54:58;;;;;;;0.60;0.30;;;8.80;1.00;;;;;;7369123;19;20011;-71
2024/02/04 06:57:30;;;;;;;0.60;0.40;;;8.90;1.00;;;;;;7367901;19;20014;-70
2024/02/04 07:00:00;;;;;;;0.30;0.20;;;8.80;1.00;;;;;;7370361;19;20022;-71
2024/02/04 07:02:30;;;;;;;0.10;0.10;;;8.90;1.00;;;;;;7367945;19;20559;-69
2024/02/04 07:05:00;;;;;;;0.30;0.20;;;8.90;1.00;;;;;;7368678;19;20026;-71
2024/02/04 07:07:30;;;;;;;0.60;0.20;;;8.80;1.00;;;;;;7368255;19;20033;-69
2024/02/04 07:10:02;;;;;;;0.30;0.20;;;8.80;1.00;;;;;;7369362;19;20046;-71
2024/02/04 07:12:35;;;;;;;0.15;0.15;;;8.80;1.00;;;;;;7367352;19;20963;-71
2024/02/04 07:15:05;;;;;;;0.82;0.20;;;8.80;1.00;;;;;;7368164;19;20098;-70
2024/02/04 07:17:35;;;;;;;0.17;0.10;;;8.80;1.00;;;;;;7367654;19;20776;-69
2024/02/04 07:20:05;;;;;;;0.10;0.10;;;8.80;1.00;;;;;;7367483;19;20666;-70
2024/02/04 07:22:36;;;;;;;3.85;0.30;;;8.70;1.00;;;;;;7367293;19;20475;-70
2024/02/04 07:25:07;;;;;;;0.30;0.20;;;8.70;1.00;;;;;;7368400;19;20018;-69
2024/02/04 07:27:40;;;;;;;0.70;0.30;;;8.70;1.00;;;;;;7365483;19;20045;-70
2024/02/04 07:30:11;;;;;;;0.17;0.10;;;8.80;1.00;;;;;;7368456;19;20393;-70
2024/02/04 07:32:41;;;;;;;0.10;0.10;;;8.80;1.00;;;;;;7366195;19;20085;-71
2024/02/04 07:35:12;;;;;;;0.40;0.30;;;8.80;1.00;;;;;;7366531;19;20475;-71
2024/02/04 07:37:42;;;;;;;0.30;0.10;;;8.80;1.00;;;;;;7366510;19;20018;-70
2024/02/04 07:40:13;;;;;;;0.95;0.28;;;8.80;1.00;;;;;;7367836;19;20126;-70
2024/02/04 07:42:45;;;;;;;0.20;0.10;;;8.90;1.00;;;;;;7366541;19;20033;-71
2024/02/04 07:45:15;;;;;;;0.30;0.20;;;8.90;1.00;;;;;;7367069;19;20017;-70
2024/02/04 07:47:45;;;;;;;0.10;0.10;;;9.00;1.00;;;;;;7364441;19;20047;-70
2024/02/04 07:50:15;;;;;;;0.20;0.10;;;9.00;1.00;;;;;;7366144;19;20021;-70
2024/02/04 07:52:45;;;;;;;0.20;0.13;;;9.10;1.00;;;;;;7365673;19;20013;-71
2024/02/04 07:55:16;;;;;;;0.40;0.17;;;9.10;1.00;;;;;;7366268;19;20011;-71
2024/02/04 07:57:49;;;;;;;0.52;0.13;;;9.10;1.00;;;;;;7365256;19;20015;-71
2024/02/04 08:00:19;;;;;;;0.20;0.17;;;9.10;1.00;;;;;;7369012;19;20032;-71
2024/02/04 08:02:49;;;;;;;0.10;0.10;;;9.20;1.00;;;;;;7366496;19;20483;-71
2024/02/04 08:05:20;;;;;;;0.63;0.13;;;9.20;1.00;;;;;;7368063;19;20022;-69
2024/02/04 08:07:50;;;;;;;0.38;0.10;;;9.20;1.00;;;;;;7360887;19;20018;-70
2024/02/04 08:10:20;;;;;;;0.22;0.10;;;9.20;1.00;;;;;;7368526;19;20085;-69
2024/02/04 08:12:53;;;;;;;0.25;0.10;;;9.20;1.00;;;;;;7368336;19;20002;-70
2024/02/04 08:15:25;;;;;;;0.40;0.30;;;9.20;1.00;;;;;;7379704;19;20010;-73
2024/02/04 08:17:55;;;;;;;0.35;0.20;;;9.20;1.00;;;;;;7379402;19;20035;-73
2024/02/04 08:20:25;;;;;;;0.30;0.20;;;9.30;1.00;;;;;;7380927;19;20430;-69
2024/02/04 08:22:56;;;;;;;0.10;0.10;;;9.40;1.00;;;;;;7378174;19;20018;-70
2024/02/04 08:25:27;;;;;;;0.50;0.30;;;9.40;1.00;;;;;;7377785;19;20011;-70
2024/02/04 08:28:00;;;;;;;0.50;0.30;;;9.40;1.00;;;;;;7378519;19;20299;-71
2024/02/04 08:30:30;;;;;;;0.43;0.32;;;9.40;1.00;;;;;;7381676;19;20010;-70
2024/02/04 08:33:00;;;;;;;1.75;0.57;;;9.40;1.00;;;;;;7378820;19;20010;-70
2024/02/04 08:35:30;;;;;;;1.02;0.60;;;9.40;1.00;;;;;;7378761;19;20006;-70
2024/02/04 08:38:01;;;;;;;1.23;0.70;;;9.50;1.00;;;;;;7379066;19;20360;-70
2024/02/04 08:40:31;;;;;;;0.98;0.50;;;9.50;1.00;;;;;;7381678;19;20022;-70
2024/02/04 08:43:03;;;;;;;0.60;0.40;;;9.50;1.00;;;;;;7379677;19;20015;-71
2024/02/04 08:45:33;;;;;;;0.77;0.50;;;9.40;1.00;;;;;;7380074;19;20360;-72
2024/02/04 08:48:03;;;;;;;1.00;0.68;;;9.50;1.00;;;;;;7378387;19;20021;-71
2024/02/04 08:50:33;;;;;;;2.22;0.50;;;9.50;1.00;;;;;;7380605;19;20010;-71
2024/02/04 08:53:03;;;;;;;1.67;0.30;;;9.60;1.00;;;;;;7378214;19;20014;-71
2024/02/04 08:55:33;;;;;;;0.88;0.45;;;9.60;1.00;;;;;;7380070;19;20010;-70
2024/02/04 08:58:06;;;;;;;1.25;0.40;;;9.60;1.00;;;;;;7377867;19;20010;-70
2024/02/04 09:00:36;;;;;;;0.45;0.40;;;9.60;1.00;;;;;;7380610;19;20028;-70
2024/02/04 09:03:07;;;;;;;0.30;0.20;;;9.70;1.00;;;;;;7377366;19;20026;-71
2024/02/04 09:05:37;;;;;;;0.20;0.17;;;9.70;1.00;;;;;;7380077;19;20017;-70
2024/02/04 09:08:07;;;;;;;0.30;0.30;;;9.80;1.00;;;;;;7377970;19;20018;-71
2024/02/04 09:10:37;;;;;;;0.20;0.10;;;9.80;1.00;;;;;;7380350;19;20018;-70
2024/02/04 09:13:10;;;;;;;0.43;0.30;;;9.60;1.00;;;;;;7376973;19;20027;-69
2024/02/04 09:15:40;;;;;;;1.05;0.30;;;9.60;1.00;;;;;;7378936;19;20478;-70
2024/02/04 09:18:10;;;;;;;0.95;0.60;;;9.70;1.00;;;;;;7376891;19;20006;-71
2024/02/04 09:20:40;;;;;;;1.10;0.40;;;9.70;1.00;;;;;;7379630;19;20040;-70
2024/02/04 09:23:12;;;;;;;0.95;0.30;;;9.70;1.00;;;;;;7377187;19;20040;-70
2024/02/04 09:25:43;;;;;;;0.73;0.20;;;9.80;1.00;;;;;;7372251;19;20019;-70
2024/02/04 09:28:15;;;;;;;0.17;0.13;;;9.80;1.00;;;;;;7369222;19;20502;-70
2024/02/04 09:30:46;;;;;;;0.85;0.30;;;9.80;1.00;;;;;;7372363;19;20018;-70
2024/02/04 09:33:16;;;;;;;1.33;0.40;;;10.00;1.00;;;;;;7369645;19;20407;-71
2024/02/04 09:35:48;;;;;;;0.40;0.22;;;10.00;1.00;;;;;;7371679;19;20025;-70
2024/02/04 09:38:19;;;;;;;0.60;0.43;;;10.20;1.00;;;;;;7370878;19;20422;-71
2024/02/04 09:40:49;;;;;;;1.33;1.00;;;10.40;1.00;;;;;;7372625;19;20021;-71
2024/02/04 09:43:22;;;;;;;0.73;0.20;;;10.40;1.00;;;;;;7369395;19;20014;-71
2024/02/04 09:45:53;;;;;;;0.50;0.30;;;10.50;1.00;;;;;;7370564;19;20018;-71
2024/02/04 09:48:25;;;;;;;0.80;0.30;;;10.60;1.00;;;;;;7370439;19;20026;-71
2024/02/04 09:50:56;;;;;;;0.20;0.20;;;10.50;1.00;;;;;;7372085;19;20014;-71
2024/02/04 09:53:35;;;;;;;0.55;0.30;;;10.90;1.00;;;;;;7370697;19;20010;-71
2024/02/04 09:56:08;;;;;;;0.40;0.22;;;10.80;1.00;;;;;;7366079;19;20461;-70
2024/02/04 09:58:41;;;;;;;0.40;0.20;;;10.90;1.00;;;;;;7370605;19;20101;-70
2024/02/04 10:01:13;;;;;;;0.60;0.20;;;11.00;1.00;;;;;;7369841;19;20023;-70
2024/02/04 10:03:44;;;;;;;0.50;0.30;;;11.00;1.00;;;;;;7370399;19;20045;-71
2024/02/04 10:06:14;;;;;;;0.50;0.25;;;11.20;1.00;;;;;;7368905;19;20011;-70
2024/02/04 10:08:45;;;;;;;0.15;0.10;;;11.00;1.00;;;;;;7370218;19;20024;-71
2024/02/04 10:11:16;;;;;;;0.20;0.13;;;10.90;1.00;;;;;;7370145;19;20275;-71
2024/02/04 10:13:50;;;;;;;0.38;0.20;;;10.60;1.00;;;;;;7371210;19;20365;-70
2024/02/04 10:16:21;;;;;;;;;;;10.90;1.00;;;;;;7369124;19;20018;-70
2024/02/04 10:18:53;;;;;;;0.20;0.20;;;11.00;1.00;;;;;;7368458;19;20344;-70
2024/02/04 10:21:25;;;;;;;0.10;0.10;;;11.30;1.00;;;;;;7368957;19;20050;-70
2024/02/04 10:23:56;;;;;;;1.50;0.30;;;11.10;1.00;;;;;;7370901;19;20014;-71
2024/02/04 10:26:31;;;;;;;0.30;0.20;;;11.00;1.00;;;;;;7367501;19;20014;-71
2024/02/04 10:29:04;;;;;;;0.28;0.10;;;10.90;1.00;;;;;;7369935;19;20010;-70
2024/02/04 10:31:35;;;;;;;0.52;0.30;;;10.90;1.00;;;;;;7368484;19;20395;-71
2024/02/04 10:34:08;;;;;;;0.38;0.10;;;10.80;1.00;;;;;;7371234;19;20034;-71
2024/02/04 10:36:38;;;;;;;0.93;0.25;;;10.70;1.00;;;;;;7367851;19;20110;-71
2024/02/04 10:39:09;;;;;;;1.17;0.28;;;10.80;1.00;;;;;;7369841;19;20044;-70
2024/02/04 10:41:47;;;;;;;0.30;0.20;;;10.70;1.00;;;;;;7370697;19;20022;-72
2024/02/04 10:44:25;;;;;;;1.45;0.50;;;11.00;1.00;;;;;;7364463;19;20022;-70
2024/02/04 10:46:58;;;;;;;0.60;0.30;;;11.00;1.00;;;;;;7368982;19;20018;-71
2024/02/04 10:49:30;;;;;;;1.52;0.75;;;11.20;1.00;;;;;;7368518;19;20105;-70
2024/02/04 10:52:03;;;;;;;0.32;0.10;;;11.00;1.00;;;;;;7368379;19;20041;-71
2024/02/04 10:54:34;;;;;;;1.60;0.45;;;10.70;1.00;;;;;;7369001;19;20033;-69
2024/02/04 10:57:08;;;;;;;0.25;0.20;;;10.70;1.00;;;;;;7366057;19;20029;-70
2024/02/04 10:59:41;;;;;;;0.77;0.40;;;10.70;1.00;;;;;;7368006;19;20006;-71
2024/02/04 11:02:13;;;;;;;0.22;0.20;;;10.90;1.00;;;;;;7369967;19;20014;-70
2024/02/04 11:04:45;;;;;;;0.95;0.40;;;10.90;1.00;;;;;;7369453;19;20017;-71
2024/02/04 11:07:16;;;;;;;1.38;0.63;;;11.00;1.00;;;;;;7365163;19;20006;-71
2024/02/04 11:09:50;;;;;;;0.50;0.20;;;11.20;1.00;;;;;;7366102;19;20055;-71
2024/02/04 11:12:23;;;;;;;0.50;0.30;;;11.20;1.00;;;;;;7367212;19;20015;-70
2024/02/04 11:15:00;;;;;;;0.40;0.30;;;11.20;1.00;;;;;;7367749;19;20072;-70
2024/02/04 11:17:50;;;;;;;0.30;0.20;;;11.20;1.00;;;;;;7367407;19;20331;-70
2024/02/04 11:20:37;;;;;;;0.68;0.30;;;11.20;1.00;;;;;;7368661;19;20014;-71
2024/02/04 11:23:28;;;;;;;0.52;0.30;;;11.00;1.00;;;;;;7367082;19;20038;-70
2024/02/04 11:26:01;;;;;;;1.55;0.40;;;10.80;1.00;;;;;;6855353;19;2003929;-70
2024/02/04 11:28:31;;;;;;;1.55;0.50;;;10.80;1.00;;;;;;7368504;19;20006;-70
2024/02/04 11:31:04;;;;;;;0.65;0.40;;;10.80;1.00;;;;;;7367160;19;20014;-70
2024/02/04 11:33:35;;;;;;;0.70;0.50;;;10.70;1.00;;;;;;7367968;19;20824;-70
2024/02/04 11:36:07;;;;;;;0.98;0.32;;;10.70;1.00;;;;;;7365788;19;20356;-71
2024/02/04 11:38:39;;;;;;;0.65;0.40;;;10.70;1.00;;;;;;7368595;19;20026;-73
2024/02/04 11:41:09;;;;;;;1.33;0.40;;;10.60;1.00;;;;;;7366861;19;20348;-71
2024/02/04 11:43:40;;;;;;;0.73;0.30;;;10.60;1.00;;;;;;7368891;19;20014;-71
2024/02/04 11:46:19;;;;;;;0.50;0.38;;;10.70;1.00;;;;;;7364731;19;20010;-71
2024/02/04 11:48:55;;;;;;;0.75;0.43;;;10.60;1.00;;;;;;7365719;19;20010;-69
2024/02/04 11:51:26;;;;;;;0.28;0.20;;;10.50;1.00;;;;;;7365735;19;20030;-69
2024/02/04 11:53:58;;;;;;;0.45;0.30;;;10.60;1.00;;;;;;7366873;19;20007;-70
2024/02/04 11:56:28;;;;;;;0.52;0.40;;;10.70;1.00;;;;;;7364708;19;20368;-70
2024/02/04 11:58:58;;;;;;;1.55;1.10;;;10.80;1.00;;;;;;7365806;19;20010;-70
2024/02/04 12:01:31;;;;;;;0.77;0.52;;;10.80;1.00;;;;;;7364596;19;20010;-70
2024/02/04 12:04:11;;;;;;;0.60;0.32;;;10.80;1.00;;;;;;7366543;19;20032;-70
2024/02/04 12:06:43;;;;;;;1.27;0.55;;;10.80;1.00;;;;;;7364953;19;20018;-71
2024/02/04 12:09:14;;;;;;;0.50;0.32;;;10.80;1.00;;;;;;7365906;19;20010;-70
2024/02/04 12:11:44;;;;;;;0.85;0.40;;;10.80;1.00;;;;;;7366213;19;20022;-70
2024/02/04 12:14:17;;;;;;;0.93;0.60;;;10.90;1.00;;;;;;7366246;19;20082;-70
2024/02/04 12:16:49;;;;;;;1.00;0.47;;;10.90;1.00;;;;;;7364608;19;20034;-70
2024/02/04 12:19:19;;;;;;;0.75;0.38;;;11.00;1.00;;;;;;7367336;19;20098;-69
2024/02/04 12:21:49;;;;;;;0.45;0.30;;;11.00;1.00;;;;;;7366657;19;20074;-71
2024/02/04 12:24:20;;;;;;;0.73;0.45;;;11.00;1.00;;;;;;7366697;19;20011;-71
2024/02/04 12:26:50;;;;;;;0.80;0.60;;;11.10;1.00;;;;;;7364004;19;20040;-69
2024/02/04 12:29:20;;;;;;;1.75;1.00;;;11.00;1.00;;;;;;7365484;19;20017;-71
2024/02/04 12:32:00;;;;;;;0.90;0.63;;;10.90;1.00;;;;;;7365273;19;20013;-71
2024/02/04 12:34:32;;;;;;;0.50;0.32;;;11.00;1.00;;;;;;7362989;19;20042;-70
2024/02/04 12:37:02;;;;;;;0.98;0.60;;;10.90;1.00;;;;;;7362825;19;20019;-70
2024/02/04 12:39:33;;;;;;;1.08;0.63;;;10.90;1.00;;;;;;7366068;19;20078;-71
2024/02/04 12:42:04;;;;;;;0.70;0.50;;;11.10;1.00;;;;;;7364569;19;20078;-71
2024/02/04 12:44:34;;;;;;;1.63;0.30;;;11.10;1.00;;;;;;7362537;19;20479;-72
2024/02/04 12:47:08;;;;;;;1.13;0.55;;;11.00;1.00;;;;;;7364528;19;20090;-71
2024/02/04 12:49:38;;;;;;;1.50;0.50;;;11.00;1.00;;;;;;7366119;19;20082;-70
2024/02/04 12:52:09;;;;;;;0.90;0.30;;;11.20;1.00;;;;;;7364554;19;20092;-69
2024/02/04 12:54:45;;;;;;;1.50;0.65;;;11.30;1.00;;;;;;7365634;19;20027;-71
2024/02/04 12:57:25;;;;;;;0.95;0.45;;;11.30;1.00;;;;;;7363591;19;20021;-71
2024/02/04 12:59:55;;;;;;;1.00;0.52;;;11.20;1.00;;;;;;7368529;19;20233;-70
2024/02/04 13:02:28;;;;;;;0.50;0.40;;;11.40;1.00;;;;;;7371500;19;20021;-70
2024/02/04 13:04:58;;;;;;;0.77;0.52;;;11.50;1.00;;;;;;7368651;19;20042;-70
2024/02/04 13:07:28;;;;;;;0.85;0.63;;;11.20;1.00;;;;;;7372185;19;20018;-69
2024/02/04 13:10:01;;;;;;;0.80;0.40;;;11.30;1.00;;;;;;7373745;19;20044;-70
2024/02/04 13:12:35;;;;;;;0.70;0.50;;;11.40;1.00;;;;;;7372398;19;20057;-71
2024/02/04 13:15:06;;;;;;;0.80;0.47;;;11.20;1.00;;;;;;7369854;19;20087;-71
2024/02/04 13:17:38;;;;;;;0.77;0.52;;;11.40;1.00;;;;;;7371076;19;20014;-71
2024/02/04 13:20:09;;;;;;;1.35;0.55;;;11.20;1.00;;;;;;7372206;19;20020;-71
2024/02/04 13:22:39;;;;;;;0.95;0.40;;;11.30;1.00;;;;;;7372871;19;20516;-71
2024/02/04 13:25:10;;;;;;;1.30;0.60;;;11.30;1.00;;;;;;7370829;19;20089;-70
2024/02/04 13:27:40;;;;;;;0.70;0.40;;;11.30;1.00;;;;;;7370139;19;20027;-72